Flight Track Log - Related Links

Times and Time Zones

All times are in EDT time to prevent confusion due to time zone crossing. See the DAL2132 flight status page for this flight to view local times or setup timezone preferences in your user account.

Time Position Orientation Groundspeed Altitude Reporting Facility
EDT Latitude Longitude Course Direction KTS MPH feet Rate Location/Type
Sun 09:59:27 AM 33.6500 -84.4833 257° West 198 228 3,700  Level Atlanta TRACON
Sun 10:00:27 AM 33.6667 -84.5667 284° West 249 287 6,900 2,663 Climbing Atlanta TRACON
Sun 10:01:00 AM 33.5420 -84.8446 255° West  Level Estimated
Sun 10:02:00 AM 33.5260 -84.9872 262° West  Level FlightAware Approximate
Sun 10:02:52 AM 33.6897 -84.7928 277° West 303 349 12,800  Level Atlanta Center
Sun 10:03:00 AM 33.5099 -85.1297 262° West  Level FlightAware Approximate
Sun 10:04:00 AM 33.4774 -85.2682 257° West  Level Estimated
Sun 10:04:52 AM 33.5942 -85.0239 244° Southwest 389 448 18,200  Level Atlanta Center
Sun 10:05:52 AM 33.5450 -85.1431 244° Southwest 397 457 20,400 2,250 Climbing Atlanta Center
Sun 10:06:52 AM 33.5064 -85.2694 250° West 408 470 22,700 2,050 Climbing Atlanta Center
Sun 10:07:52 AM 33.4861 -85.4039 260° West 408 470 24,500 1,750 Climbing Atlanta Center
Sun 10:08:52 AM 33.4681 -85.5206 260° West 414 476 26,200 1,600 Climbing Atlanta Center
Sun 10:09:52 AM 33.4475 -85.6597 260° West 414 476 27,700 1,350 Climbing Atlanta Center
Sun 10:10:52 AM 33.4247 -85.7961 259° West 414 476 28,900 1,150 Climbing Atlanta Center
Sun 10:11:52 AM 33.3978 -85.9297 256° West 415 478 30,000 550 Climbing Atlanta Center
Sun 10:12:52 AM 33.3767 -86.0736 260° West 429 494 30,000  Level Atlanta Center
Sun 10:13:52 AM 33.3533 -86.2197 259° West 436 502 30,000  Level Atlanta Center
Sun 10:14:52 AM 33.3297 -86.3636 259° West 447 514 30,000  Level Atlanta Center
Sun 10:15:52 AM 33.3017 -86.5169 258° West 447 514 30,000  Level Atlanta Center
Sun 10:16:52 AM 33.2844 -86.6431 261° West 447 514 30,000 500 Level Atlanta Center
Sun 10:17:52 AM 33.2608 -86.7814 258° West 442 509 31,000 1,300 Climbing Atlanta Center
Sun 10:18:52 AM 33.2367 -86.9197 258° West 437 503 32,600 2,250 Climbing Atlanta Center
Sun 10:19:52 AM 33.1856 -87.0497 245° Southwest 430 495 35,500 2,650 Climbing Atlanta Center
Sun 10:20:52 AM 33.1328 -87.1594 240° Southwest 399 459 37,900 1,250 Climbing Atlanta Center
Sun 10:21:52 AM 33.0861 -87.2644 242° Southwest 376 433 38,000 30 Climbing Atlanta Center
Sun 10:24:12 AM 32.9792 -87.5031 242° Southwest 379 436 38,000  Level Memphis Center
Sun 10:25:14 AM 32.9283 -87.6156 242° Southwest 381 438 38,000  Level Memphis Center
Sun 10:26:16 AM 32.8661 -87.7531 242° Southwest 386 444 38,000  Level Memphis Center
Sun 10:27:18 AM 32.8144 -87.8639 241° Southwest 386 444 38,000  Level Memphis Center
Sun 10:28:20 AM 32.7619 -87.9797 242° Southwest 386 444 38,000  Level Memphis Center
Sun 10:29:22 AM 32.7119 -88.0889 241° Southwest 383 441 38,000  Level Memphis Center
Sun 10:30:24 AM 32.6622 -88.1961 241° Southwest 377 434 38,000  Level Memphis Center
Sun 10:31:26 AM 32.6106 -88.3069 241° Southwest 379 436 38,000  Level Memphis Center
Sun 10:32:28 AM 32.5600 -88.4178 242° Southwest 381 438 38,000  Level Memphis Center
Sun 10:33:30 AM 32.4986 -88.5481 241° Southwest 381 438 38,000  Level Memphis Center
Sun 10:34:32 AM 32.4475 -88.6572 241° Southwest 381 438 38,000  Level Memphis Center
Sun 10:35:34 AM 32.3936 -88.7736 241° Southwest 381 438 38,000  Level Memphis Center
Sun 10:36:37 AM 32.3556 -88.8789 247° West 379 436 38,000  Level Memphis Center
Sun 10:37:39 AM 32.3236 -88.9942 252° West 373 429 38,000  Level Memphis Center
Sun 10:38:41 AM 32.2842 -89.1336 252° West 373 429 38,000  Level Memphis Center
Sun 10:39:43 AM 32.2503 -89.2506 251° West 373 429 38,000  Level Memphis Center
Sun 10:40:45 AM 32.2158 -89.3650 250° West 373 429 38,000  Level Memphis Center
Sun 10:41:47 AM 32.1833 -89.4778 251° West 371 427 38,000  Level Memphis Center
Sun 10:42:49 AM 32.1511 -89.5883 251° West 363 418 38,000  Level Memphis Center
Sun 10:43:51 AM 32.1189 -89.7000 251° West 361 415 38,000  Level Memphis Center
Sun 10:44:53 AM 32.0789 -89.8375 251° West 363 418 38,000  Level Memphis Center
Sun 10:45:55 AM 32.0436 -89.9553 251° West 375 432 38,000  Level Memphis Center
Sun 10:46:57 AM 32.0078 -90.0714 250° West 378 435 38,000  Level Memphis Center
Sun 10:47:59 AM 31.9747 -90.1872 251° West 377 434 38,000  Level Memphis Center
Sun 10:49:01 AM 31.9403 -90.3014 250° West 376 433 38,000  Level Memphis Center
Sun 10:49:47 AM 31.9097 -90.4019 250° West 375 432 38,000  Level Houston Center
Sun 10:50:49 AM 31.8750 -90.5164 250° West 375 432 38,000  Level Houston Center
Sun 10:51:51 AM 31.8417 -90.6289 251° West 368 423 38,000  Level Houston Center
Sun 10:52:53 AM 31.8072 -90.7419 250° West 368 423 38,000  Level Houston Center
Sun 10:53:55 AM 31.7703 -90.8597 250° West 381 438 38,000  Level Houston Center
Sun 10:55:59 AM 31.6922 -91.1169 250° West 371 427 38,000  Level Houston Center
Sun 10:57:01 AM 31.6583 -91.2303 251° West 370 426 38,000  Level Houston Center
Sun 10:58:04 AM 31.6217 -91.3444 249° West 371 427 38,000  Level Houston Center
Sun 10:59:06 AM 31.5867 -91.4594 250° West 373 429 38,000  Level Houston Center
Sun 11:00:08 AM 31.5500 -91.5733 249° West 373 429 38,000  Level Houston Center
Sun 11:01:10 AM 31.5136 -91.6892 250° West 374 430 38,000  Level Houston Center
Sun 11:02:12 AM 31.4706 -91.8275 250° West 376 433 38,000  Level Houston Center
Sun 11:03:14 AM 31.4339 -91.9425 250° West 376 433 38,000  Level Houston Center
Sun 11:04:16 AM 31.3958 -92.0622 250° West 376 433 38,000  Level Houston Center
Sun 11:05:18 AM 31.3600 -92.1767 250° West 376 433 38,000 -48 Level Houston Center
Sun 11:06:20 AM 31.3236 -92.2900 249° West 375 432 37,900  Descending Houston Center
Sun 11:07:22 AM 31.2875 -92.4017 249° West 372 428 38,000 48 Climbing Houston Center
Sun 11:08:24 AM 31.2511 -92.5150 249° West 372 428 38,000  Level Houston Center
Sun 11:09:26 AM 31.1936 -92.6442 243° Southwest 372 428 38,000  Level Houston Center
Sun 11:10:29 AM 31.1464 -92.7506 243° Southwest 372 428 38,000  Level Houston Center
Sun 11:11:31 AM 31.0992 -92.8567 243° Southwest 372 428 38,000  Level Houston Center
Sun 11:12:33 AM 31.0511 -92.9642 242° Southwest 372 428 38,000  Level Houston Center
Sun 11:13:35 AM 31.0042 -93.0714 243° Southwest 372 428 38,000  Level Houston Center
Sun 11:14:37 AM 30.9461 -93.1989 242° Southwest 372 428 38,000  Level Houston Center
Sun 11:15:39 AM 30.8978 -93.3061 242° Southwest 372 428 38,000  Level Houston Center
Sun 11:16:41 AM 30.8508 -93.4131 243° Southwest 374 430 38,000  Level Houston Center
Sun 11:17:43 AM 30.8031 -93.5183 242° Southwest 372 428 38,000  Level Houston Center
Sun 11:18:45 AM 30.7542 -93.6253 242° Southwest 373 429 38,000  Level Houston Center
Sun 11:19:48 AM 30.6969 -93.7542 243° Southwest 375 432 38,000  Level Houston Center
Sun 11:20:50 AM 30.6489 -93.8611 242° Southwest 375 432 38,000 -48 Level Houston Center
Sun 11:21:52 AM 30.5992 -93.9689 242° Southwest 377 434 37,900  Descending Houston Center
Sun 11:22:54 AM 30.5492 -94.0786 242° Southwest 384 442 38,000 48 Climbing Houston Center
Sun 11:23:56 AM 30.4981 -94.1894 242° Southwest 386 444 38,000  Level Houston Center
Sun 11:24:58 AM 30.4361 -94.3219 242° Southwest 388 447 38,000  Level Houston Center
Sun 11:26:00 AM 30.3858 -94.4328 242° Southwest 388 447 38,000  Level Houston Center
Sun 11:27:03 AM 30.3314 -94.5478 241° Southwest 396 456 38,000  Level Houston Center
Sun 11:28:05 AM 30.2781 -94.6608 241° Southwest 398 458 38,000  Level Houston Center
Sun 11:29:07 AM 30.2253 -94.7739 242° Southwest 399 459 38,000  Level Houston Center
Sun 11:30:09 AM 30.1722 -94.8889 242° Southwest 403 464 38,000  Level Houston Center
Sun 11:31:11 AM 30.1161 -95.0308 245° Southwest 406 467 38,000  Level Houston Center
Sun 11:32:13 AM 30.0808 -95.1564 252° West 409 471 38,000  Level Houston Center
Sun 11:33:15 AM 30.0450 -95.2811 252° West 411 473 38,000  Level Houston Center
Sun 11:34:18 AM 30.0081 -95.4072 251° West 413 475 38,000  Level Houston Center
Sun 11:35:20 AM 29.9639 -95.5572 251° West 414 476 38,000  Level Houston Center
Sun 11:36:22 AM 29.9275 -95.6839 252° West 415 478 38,000  Level Houston Center
Sun 11:37:24 AM 29.8903 -95.8089 251° West 415 478 38,000  Level Houston Center
Sun 11:38:26 AM 29.8539 -95.9339 251° West 415 478 38,000  Level Houston Center
Sun 11:39:28 AM 29.8150 -96.0611 251° West 414 476 38,000 -242 Level Houston Center
Sun 11:40:30 AM 29.8075 -96.1900 266° West 411 473 37,500 -1,210 Descending Houston Center
Sun 11:41:32 AM 29.8894 -96.3233 305° West 433 498 35,500 -2,016 Descending Houston Center
Sun 11:42:35 AM 29.9603 -96.4219 310° West 410 472 33,300 -2,304 Descending Houston Center
Sun 11:43:37 AM 30.0336 -96.5256 309° West 413 475 30,700 -2,032 Descending Houston Center
Sun 11:44:39 AM 30.1078 -96.6281 310° West 420 483 29,100 -1,742 Descending Houston Center
Sun 11:45:41 AM 30.1631 -96.7397 300° West 410 472 27,100 -2,177 Descending Houston Center
Sun 11:46:43 AM 30.2131 -96.8822 292° West 401 461 24,600 -1,548 Descending Houston Center
Sun 11:47:45 AM 30.2256 -97.0019 277° West 393 452 23,900 -290 Descending Houston Center
Sun 11:48:47 AM 30.1842 -97.1181 248° West 392 451 24,000  Climbing Houston Center
Sun 11:49:50 AM 30.1400 -97.2314 246° West 392 451 23,900 -960 Descending Houston Center
Sun 11:50:52 AM 30.0969 -97.3469 247° West 392 451 22,000 -2,032 Descending Houston Center
Sun 11:51:54 AM 30.0458 -97.4781 246° West 375 432 19,700 -1,981 Descending Houston Center
Sun 11:52:38 AM 30.0194 -97.5469 246° West 348 400 18,500 -1,742 Descending Houston Center
Sun 11:52:56 AM 30.0058 -97.5833 247° West 350 403 17,900 -1,574 Descending Houston Center
Sun 11:53:39 AM 29.9794 -97.6536 247° West 339 390 16,900 -1,645 Descending Houston Center
Sun 11:53:58 AM 29.9639 -97.6894 243° Southwest 340 391 16,200 -1,970 Descending Houston Center
Sun 11:54:46 AM 29.9356 -97.7653 247° West 334 384 14,700 -1,839 Descending Houston Center
Sun 11:55:00 AM 29.9275 -97.7861 246° West 333 383 14,300 -1,574 Descending Houston Center
Sun 11:55:47 AM 29.9019 -97.8517 246° West 291 335 13,100 -1,355 Descending Houston Center
Sun 11:56:02 AM 29.8950 -97.8719 248° West 296 341 12,900 -1,881 Descending Houston Center
Sun 11:56:54 AM 29.9036 -97.9575 277° West 284 327 11,000 -2,129 Descending Houston Center
Sun 11:57:04 AM 29.9081 -97.9708 291° West 293 337 10,700 -1,701 Descending Houston Center
Sun 11:58:01 AM 29.9169 -98.0522 277° West 281 323 9,100 -1,619 Descending Houston Center
Sun 11:58:07 AM 29.9194 -98.0586 294° West 282 325 9,000 -1,395 Descending Houston Center
Sun 11:58:44 AM 29.9267 -98.1114 279° West 277 319 8,100 -1,645 Descending Houston Center
Sun 11:59:09 AM 29.9336 -98.1517 281° West 278 320 7,300 -822 Descending Houston Center
Sun 11:59:57 AM 29.9342 -98.2142 271° West 245 282 7,100 -290 Descending Houston Center
Sun 12:00:11 PM 29.9233 -98.2228 215° Southwest 241 277 7,000 -600 Descending Houston Center
Sun 12:00:57 PM 29.8769 -98.2308 189° South 206 237 6,500 -871 Descending Houston Center
Sun 12:01:13 PM 29.8600 -98.2300 178° South 214 246 6,100 -1,154 Descending Houston Center
Sun 12:02:15 PM 29.8039 -98.2453 193° South 206 237 5,000 -900 Descending Houston Center
Sun 12:02:53 PM 29.7750 -98.2625 207° Southwest 168 193 4,600 -774 Descending Houston Center
Sun 12:03:17 PM 29.7589 -98.2717 206° Southwest 170 196 4,200 -627 Descending Houston Center
Sun 12:04:00 PM 29.7289 -98.2875 205° Southwest 163 188 3,900 -387 Descending Houston Center
Sun 12:04:19 PM 29.7164 -98.2953 208° Southwest 170 196 3,800 -393 Descending Houston Center
Sun 12:05:01 PM 29.6872 -98.3119 206° Southwest 169 194 3,500 -484 Descending Houston Center
Sun 12:05:21 PM 29.6728 -98.3236 215° Southwest 170 196 3,300 -436 Descending Houston Center
Sun 12:05:56 PM 29.6522 -98.3425 219° Southwest 169 194 3,100 -381 Descending Houston Center
Sun 12:06:24 PM 29.6364 -98.3575 219° Southwest 169 194 2,900 -358 Descending Houston Center
Sun 12:07:03 PM 29.6117 -98.3811 220° Southwest 164 189 2,700 -484 Descending Houston Center
Sun 12:07:26 PM 29.6042 -98.3897 225° Southwest 158 182 2,400 -700 Descending Houston Center
Sun 12:08:03 PM 29.5847 -98.4083 220° Southwest 124 143 2,000 -677 Descending Houston Center
Sun 12:08:28 PM 29.5753 -98.4192 225° Southwest 133 153 1,700 -689 Descending Houston Center
Sun 12:09:04 PM 29.5578 -98.4356 219° Southwest 127 146 1,300 -677 Descending Houston Center
Sun 12:09:30 PM 29.5475 -98.4456 220° Southwest 132 152 1,000 -692 Descending Houston Center

Login

Don't have an account? Register now (free) for customized features, flight alerts, and more!